createdAt,value
2016-11-24T00:00:53.141Z,32.1
2016-11-24T00:01:53.187Z,32.1
2016-11-24T00:02:53.357Z,32.1
2016-11-24T00:03:53.291Z,32.1
2016-11-24T00:04:49.806Z,32.1
2016-11-24T00:05:49.818Z,32.1
2016-11-24T00:06:53.556Z,32.1
2016-11-24T00:07:49.837Z,32.1
2016-11-24T00:08:53.596Z,32.1
2016-11-24T00:09:50.041Z,32.1
2016-11-24T00:10:53.588Z,32.1
2016-11-24T00:11:50.775Z,32.1
2016-11-24T00:12:50.100Z,32.1
2016-11-24T00:13:53.861Z,32.1
2016-11-24T00:14:50.246Z,32.1
2016-11-24T00:15:53.805Z,32.1
2016-11-24T00:16:53.868Z,32.1
2016-11-24T00:17:50.398Z,32.1
2016-11-24T00:18:50.446Z,32.1
2016-11-24T00:19:53.990Z,32.1
2016-11-24T00:20:50.527Z,32.1
2016-11-24T00:21:54.131Z,32.1
2016-11-24T00:22:50.463Z,32.1
2016-11-24T00:23:54.162Z,32.1
2016-11-24T00:24:50.511Z,32.1
2016-11-24T00:25:54.260Z,32.1
2016-11-24T00:26:54.285Z,32.1
2016-11-24T00:27:50.589Z,32.1
2016-11-24T00:28:50.738Z,32.1
2016-11-24T00:29:54.387Z,32.1
2016-11-24T00:30:54.518Z,32.1
2016-11-24T00:31:50.914Z,32.1
2016-11-24T00:32:50.928Z,32.1
2016-11-24T00:33:54.591Z,32.1
2016-11-24T00:34:51.021Z,32.1
2016-11-24T00:35:51.047Z,32.1
2016-11-24T00:36:54.709Z,32.1
2016-11-24T00:37:51.086Z,32.1
2016-11-24T00:38:51.118Z,32.1
2016-11-24T00:39:51.224Z,32.1
2016-11-24T00:40:55.006Z,32.1
2016-11-24T00:41:51.334Z,32.1
2016-11-24T00:42:51.476Z,32.1
2016-11-24T00:43:51.478Z,32.1
2016-11-24T00:44:51.487Z,32.1
2016-11-24T00:45:55.321Z,32.1
2016-11-24T00:46:51.617Z,32.1
2016-11-24T00:47:51.640Z,32.1
2016-11-24T00:48:51.676Z,32.1
2016-11-24T00:49:51.731Z,32.1
2016-11-24T00:50:51.731Z,32.1
2016-11-24T00:51:55.416Z,32.1
2016-11-24T00:52:55.429Z,32.1
2016-11-24T00:53:55.560Z,32.1
2016-11-24T00:54:52.017Z,32.1
2016-11-24T00:55:51.976Z,32.1
2016-11-24T00:56:55.719Z,32.1
2016-11-24T00:57:55.879Z,32.1
2016-11-24T00:58:52.199Z,32.1
2016-11-24T00:59:52.222Z,32.1
2016-11-24T01:00:52.254Z,32.1
2016-11-24T01:01:55.909Z,32.1
2016-11-24T01:02:52.323Z,32.1
2016-11-24T01:03:52.343Z,32.1
2016-11-24T01:04:56.052Z,32.1
2016-11-24T01:05:56.189Z,32.1
2016-11-24T01:06:56.276Z,32.1
2016-11-24T01:07:52.656Z,32.1
2016-11-24T01:08:52.600Z,32.1
2016-11-24T01:09:56.285Z,32.1
2016-11-24T01:10:52.771Z,32.1
2016-11-24T01:11:52.871Z,32.1
2016-11-24T01:12:56.449Z,32.1
2016-11-24T01:13:56.473Z,32.1
2016-11-24T01:14:52.826Z,32.1
2016-11-24T01:15:56.587Z,32.1
2016-11-24T01:16:52.872Z,32.1
2016-11-24T01:17:53.025Z,32.1
2016-11-24T01:18:56.663Z,32.1
2016-11-24T01:19:56.712Z,32.1
2016-11-24T01:20:56.734Z,32.1
2016-11-24T01:21:56.835Z,32.1
2016-11-24T01:22:56.873Z,32.1
2016-11-24T01:23:53.268Z,32.1
2016-11-24T01:24:56.859Z,32.1
2016-11-24T01:25:53.353Z,32.1
2016-11-24T01:26:57.023Z,32.1
2016-11-24T01:27:54.001Z,32.1
2016-11-24T01:28:53.425Z,32.1
2016-11-24T01:29:53.464Z,32.1
2016-11-24T01:30:53.508Z,32.1
2016-11-24T01:31:53.552Z,32.1
2016-11-24T01:32:57.305Z,32.1
2016-11-24T01:33:53.679Z,32.1
2016-11-24T01:34:53.688Z,32.1
2016-11-24T01:35:57.415Z,32.1
2016-11-24T01:36:57.475Z,32.1
2016-11-24T01:37:57.694Z,32.1
2016-11-24T01:38:53.962Z,32.1
2016-11-24T01:39:54.019Z,32.1
2016-11-24T01:40:57.738Z,32.1
2016-11-24T01:41:57.912Z,32.1
2016-11-24T01:42:54.253Z,32.1
2016-11-24T01:43:58.020Z,32.1
2016-11-24T01:44:54.315Z,32.1
2016-11-24T01:45:58.025Z,32.1
2016-11-24T01:46:58.088Z,32.1
2016-11-24T01:47:58.071Z,32.1
2016-11-24T01:48:58.141Z,32.1
2016-11-24T01:49:54.581Z,32.1
2016-11-24T01:50:58.247Z,32.1
2016-11-24T01:51:58.296Z,32.2
2016-11-24T01:52:54.646Z,32.1
2016-11-24T01:53:55.396Z,32.1
2016-11-24T01:54:58.442Z,32.1
2016-11-24T01:55:54.904Z,32.1
2016-11-24T01:56:58.675Z,32.1
2016-11-24T01:57:54.949Z,32.1
2016-11-24T01:58:54.995Z,32.1
2016-11-24T01:59:55.026Z,32.1
2016-11-24T02:00:58.744Z,32.1
2016-11-24T02:01:55.226Z,32.1
2016-11-24T02:02:55.174Z,32.1
2016-11-24T02:03:55.184Z,32.1
2016-11-24T02:04:58.962Z,32.1
2016-11-24T02:05:58.903Z,32.1
2016-11-24T02:06:55.474Z,32.1
2016-11-24T02:07:55.414Z,32.1
2016-11-24T02:08:59.190Z,32.1
2016-11-24T02:09:55.432Z,32.1
2016-11-24T02:10:55.474Z,32.1
2016-11-24T02:11:59.289Z,32.1
2016-11-24T02:12:55.806Z,32.1
2016-11-24T02:13:55.698Z,32.1
2016-11-24T02:14:59.462Z,32.1
2016-11-24T02:15:59.445Z,32.1
2016-11-24T02:16:55.857Z,32.1
2016-11-24T02:17:59.510Z,32.1
2016-11-24T02:18:56.080Z,32.1
2016-11-24T02:19:59.678Z,32.1
2016-11-24T02:20:59.701Z,32.1
2016-11-24T02:21:59.684Z,32.1
2016-11-24T02:22:56.115Z,32.1
2016-11-24T02:23:59.903Z,32.1
2016-11-24T02:24:59.954Z,32.1
2016-11-24T02:25:56.463Z,32.1
2016-11-24T02:27:00.062Z,32.1
2016-11-24T02:28:00.061Z,32.1
2016-11-24T02:29:00.161Z,32.1
2016-11-24T02:29:56.651Z,32.1
2016-11-24T02:31:00.302Z,32.1
2016-11-24T02:31:56.631Z,32.1
2016-11-24T02:32:56.899Z,32.1
2016-11-24T02:33:56.743Z,32.1
2016-11-24T02:34:56.897Z,32.1
2016-11-24T02:36:00.548Z,32.1
2016-11-24T02:36:57.112Z,32.1
2016-11-24T02:38:00.709Z,32.1
2016-11-24T02:39:00.948Z,32.1
2016-11-24T02:40:00.915Z,32.1
2016-11-24T02:40:57.262Z,32.1
2016-11-24T02:42:00.934Z,32.1
2016-11-24T02:42:57.565Z,32.1
2016-11-24T02:43:57.531Z,32.1
2016-11-24T02:45:01.308Z,32.1
2016-11-24T02:46:01.223Z,32.1
2016-11-24T02:47:01.306Z,32.1
2016-11-24T02:48:01.354Z,32.1
2016-11-24T02:48:57.661Z,32.1
2016-11-24T02:49:57.686Z,32.1
2016-11-24T02:51:01.472Z,32.1
2016-11-24T02:52:01.479Z,32.1
2016-11-24T02:52:57.881Z,32.2
2016-11-24T02:53:57.943Z,32.2
2016-11-24T02:55:01.724Z,32.2
2016-11-24T02:55:58.120Z,32.1
2016-11-24T02:56:58.033Z,32.2
2016-11-24T02:58:01.802Z,32.2
2016-11-24T02:58:58.209Z,32.1
2016-11-24T03:00:01.918Z,32.1
2016-11-24T03:01:02.606Z,32.1
2016-11-24T03:01:58.915Z,32.1
2016-11-24T03:03:02.603Z,32.2
2016-11-24T03:03:58.358Z,32.1
2016-11-24T03:05:02.168Z,32.2
2016-11-24T03:05:58.675Z,32.2
2016-11-24T03:07:02.354Z,32.2
2016-11-24T03:07:58.736Z,32.2
2016-11-24T03:09:00.131Z,32.1
2016-11-24T03:10:00.899Z,32.1
2016-11-24T03:11:03.033Z,32.1
2016-11-24T03:11:59.760Z,32.2
2016-11-24T03:12:58.992Z,32.2
2016-11-24T03:14:02.654Z,32.2
2016-11-24T03:14:59.676Z,32.2
2016-11-24T03:16:02.712Z,32.2
2016-11-24T03:16:59.867Z,32.2
2016-11-24T03:18:02.830Z,32.2
2016-11-24T03:19:00.449Z,32.2
2016-11-24T03:20:03.043Z,32.2
2016-11-24T03:21:00.111Z,32.2
2016-11-24T03:21:59.602Z,32.2
2016-11-24T03:23:03.924Z,32.2
2016-11-24T03:24:03.367Z,32.2
2016-11-24T03:25:03.262Z,32.2
2016-11-24T03:26:03.334Z,32.2
2016-11-24T03:27:03.402Z,32.2
2016-11-24T03:28:03.464Z,32.2
2016-11-24T03:29:00.014Z,32.2
2016-11-24T03:30:03.586Z,32.2
2016-11-24T03:31:03.667Z,32.2
2016-11-24T03:32:00.030Z,32.2
2016-11-24T03:33:03.784Z,32.2
2016-11-24T03:34:00.231Z,32.2
2016-11-24T03:35:00.328Z,32.2
2016-11-24T03:36:03.863Z,32.2
2016-11-24T03:37:00.216Z,32.2
2016-11-24T03:38:03.872Z,32.2
2016-11-24T03:39:00.327Z,32.2
2016-11-24T03:40:00.450Z,32.2
2016-11-24T03:41:00.405Z,32.2
2016-11-24T03:42:00.438Z,32.2
2016-11-24T03:43:00.488Z,32.2
2016-11-24T03:44:04.120Z,32.2
2016-11-24T03:45:00.545Z,32.2
2016-11-24T03:46:00.605Z,32.2
2016-11-24T03:47:00.519Z,32.2
2016-11-24T03:48:00.668Z,32.2
2016-11-24T03:49:00.769Z,32.2
2016-11-24T03:50:04.357Z,32.2
2016-11-24T03:51:04.452Z,32.2
2016-11-24T03:52:04.442Z,32.2
2016-11-24T03:53:04.566Z,32.2
2016-11-24T03:54:00.949Z,32.2
2016-11-24T03:55:01.048Z,32.2
2016-11-24T03:56:04.830Z,32.2
2016-11-24T03:57:01.145Z,32.2
2016-11-24T03:58:01.163Z,32.2
2016-11-24T03:59:04.965Z,32.2
2016-11-24T04:00:04.968Z,32.2
2016-11-24T04:01:05.046Z,32.2
2016-11-24T04:02:05.004Z,32.2
2016-11-24T04:03:05.130Z,32.2
2016-11-24T04:04:05.069Z,32.2
2016-11-24T04:05:05.171Z,32.2
2016-11-24T04:06:01.520Z,32.2
2016-11-24T04:07:05.197Z,32.2
2016-11-24T04:08:05.192Z,32.2
2016-11-24T04:09:01.657Z,32.2
2016-11-24T04:10:05.406Z,32.2
2016-11-24T04:11:05.413Z,32.2
2016-11-24T04:12:01.734Z,32.2
2016-11-24T04:13:01.753Z,32.2
2016-11-24T04:14:05.410Z,32.2
2016-11-24T04:15:05.646Z,32.2
2016-11-24T04:16:05.504Z,32.2
2016-11-24T04:17:05.627Z,32.2
2016-11-24T04:18:05.602Z,32.2
2016-11-24T04:19:02.023Z,32.2
2016-11-24T04:20:02.065Z,32.2
2016-11-24T04:21:05.763Z,32.2
2016-11-24T04:22:05.874Z,32.2
2016-11-24T04:23:05.757Z,32.2
2016-11-24T04:24:02.269Z,32.2
2016-11-24T04:25:05.994Z,32.2
2016-11-24T04:26:02.408Z,32.2
2016-11-24T04:27:05.951Z,32.2
2016-11-24T04:28:02.309Z,32.2
2016-11-24T04:29:02.442Z,32.2
2016-11-24T04:30:06.049Z,32.2
2016-11-24T04:31:06.105Z,32.2
2016-11-24T04:32:06.158Z,32.2
2016-11-24T04:33:02.564Z,32.2
2016-11-24T04:34:02.644Z,32.2
2016-11-24T04:35:06.243Z,32.2
2016-11-24T04:36:06.316Z,32.2
2016-11-24T04:37:02.701Z,32.2
2016-11-24T04:38:06.312Z,32.2
2016-11-24T04:39:02.705Z,32.1
2016-11-24T04:40:06.435Z,32.1
2016-11-24T04:41:02.858Z,32.1
2016-11-24T04:42:02.899Z,32.1
2016-11-24T04:43:02.927Z,32.1
2016-11-24T04:44:02.941Z,32.2
2016-11-24T04:45:06.674Z,32.2
2016-11-24T04:46:06.656Z,32.1
2016-11-24T04:47:06.726Z,32.2
2016-11-24T04:48:06.751Z,32.1
2016-11-24T04:49:06.905Z,32.2
2016-11-24T04:50:03.216Z,32.2
2016-11-24T04:51:03.228Z,32.2
2016-11-24T04:52:03.354Z,32.2
2016-11-24T04:53:03.445Z,32.2
2016-11-24T04:54:03.456Z,32.2
2016-11-24T04:55:07.105Z,32.2
2016-11-24T04:56:03.595Z,32.2
2016-11-24T04:57:07.231Z,32.2
2016-11-24T04:58:07.355Z,32.1
2016-11-24T04:59:03.792Z,32.2
2016-11-24T05:00:07.374Z,32.1
2016-11-24T05:01:07.428Z,32.1
2016-11-24T05:02:03.941Z,32.2
2016-11-24T05:03:04.033Z,32.1
2016-11-24T05:04:07.747Z,32.1
2016-11-24T05:05:04.117Z,32.1
2016-11-24T05:06:07.804Z,32.1
2016-11-24T05:07:07.767Z,32.2
2016-11-24T05:08:07.825Z,32.2
2016-11-24T05:09:07.951Z,32.2
2016-11-24T05:10:07.962Z,32.2
2016-11-24T05:11:08.114Z,32.2
2016-11-24T05:12:08.210Z,32.2
2016-11-24T05:13:04.477Z,32.2
2016-11-24T05:14:08.219Z,32.2
2016-11-24T05:15:04.657Z,32.2
2016-11-24T05:16:08.354Z,32.2
2016-11-24T05:17:08.466Z,32.2
2016-11-24T05:18:08.558Z,32.2
2016-11-24T05:19:08.655Z,32.2
2016-11-24T05:20:05.029Z,32.2
2016-11-24T05:21:05.101Z,32.2
2016-11-24T05:22:05.097Z,32.2
2016-11-24T05:23:08.850Z,32.2
2016-11-24T05:24:05.252Z,32.2
2016-11-24T05:25:05.364Z,32.2
2016-11-24T05:26:05.334Z,32.2
2016-11-24T05:27:09.085Z,32.2
2016-11-24T05:28:09.074Z,32.2
2016-11-24T05:29:05.525Z,32.2
2016-11-24T05:30:05.438Z,32.2
2016-11-24T05:31:05.440Z,32.2
2016-11-24T05:32:09.131Z,32.2
2016-11-24T05:33:05.545Z,32.2
2016-11-24T05:34:09.323Z,32.2
2016-11-24T05:35:05.842Z,32.2
2016-11-24T05:36:09.447Z,32.2
2016-11-24T05:37:09.527Z,32.2
2016-11-24T05:38:09.558Z,32.2
2016-11-24T05:39:09.544Z,32.2
2016-11-24T05:40:06.027Z,32.2
2016-11-24T05:41:05.984Z,32.2
2016-11-24T05:42:06.012Z,32.2
2016-11-24T05:43:06.109Z,32.2
2016-11-24T05:44:09.756Z,32.2
2016-11-24T05:45:06.250Z,32.2
2016-11-24T05:46:06.186Z,32.2
2016-11-24T05:47:09.935Z,32.2
2016-11-24T05:48:06.308Z,32.2
2016-11-24T05:49:07.096Z,32.2
2016-11-24T05:50:06.373Z,32.2
2016-11-24T05:51:10.116Z,32.2
2016-11-24T05:52:10.070Z,32.2
2016-11-24T05:53:06.519Z,32.2
2016-11-24T05:54:06.626Z,32.2
2016-11-24T05:55:10.245Z,32.2
2016-11-24T05:56:10.297Z,32.3
2016-11-24T05:57:06.695Z,32.4
2016-11-24T05:58:06.802Z,32.5
2016-11-24T05:59:10.440Z,32.7
2016-11-24T06:00:10.640Z,32.7
2016-11-24T06:01:07.053Z,32.8
2016-11-24T06:02:07.074Z,32.9
2016-11-24T06:03:07.149Z,33
2016-11-24T06:04:07.152Z,33.1
2016-11-24T06:05:07.282Z,33.2
2016-11-24T06:06:10.862Z,33.2
2016-11-24T06:07:11.011Z,33.3
2016-11-24T06:08:11.085Z,33.3
2016-11-24T06:09:07.495Z,33.4
2016-11-24T06:10:07.523Z,33.4
2016-11-24T06:11:11.165Z,33.4
2016-11-24T06:12:07.504Z,33.5
2016-11-24T06:13:07.576Z,33.5
2016-11-24T06:14:11.250Z,33.5
2016-11-24T06:15:07.635Z,33.6
2016-11-24T06:16:07.728Z,33.6
2016-11-24T06:17:10.486Z,33.6
2016-11-24T06:18:11.512Z,33.6
2016-11-24T06:19:11.454Z,33.7
2016-11-24T06:20:11.549Z,33.7
2016-11-24T06:21:08.035Z,33.8
2016-11-24T06:22:07.973Z,33.8
2016-11-24T06:23:08.128Z,33.8
2016-11-24T06:24:08.231Z,33.8
2016-11-24T06:25:08.298Z,33.8
2016-11-24T06:26:08.337Z,33.7
2016-11-24T06:27:12.082Z,33.8
2016-11-24T06:28:12.106Z,33.8
2016-11-24T06:29:12.076Z,33.7
2016-11-24T06:30:12.051Z,33.8
2016-11-24T06:31:12.075Z,33.7
2016-11-24T06:32:08.510Z,33.7
2016-11-24T06:33:08.710Z,33.7
2016-11-24T06:34:12.410Z,33.7
2016-11-24T06:35:12.489Z,33.7
2016-11-24T06:36:12.556Z,33.7
2016-11-24T06:37:09.035Z,33.6
2016-11-24T06:38:12.546Z,33.6
2016-11-24T06:39:09.084Z,33.6
2016-11-24T06:40:09.046Z,33.6
2016-11-24T06:41:08.977Z,33.6
2016-11-24T06:42:12.682Z,33.6
2016-11-24T06:43:12.846Z,33.5
2016-11-24T06:44:09.177Z,33.5
2016-11-24T06:45:09.376Z,33.5
2016-11-24T06:46:12.938Z,33.5
2016-11-24T06:47:09.423Z,33.5
2016-11-24T06:48:09.330Z,33.5
2016-11-24T06:49:09.391Z,33.5
2016-11-24T06:50:09.481Z,33.5
2016-11-24T06:51:13.273Z,33.5
2016-11-24T06:52:09.623Z,33.6
2016-11-24T06:53:09.654Z,33.6
2016-11-24T06:54:09.665Z,33.7
2016-11-24T06:55:09.809Z,33.7
2016-11-24T06:56:13.457Z,33.8
2016-11-24T06:57:13.507Z,33.9
2016-11-24T06:58:09.966Z,34
2016-11-24T06:59:13.591Z,34
2016-11-24T07:00:13.620Z,34.1
2016-11-24T07:01:10.018Z,34.1
2016-11-24T07:02:13.687Z,34.1
2016-11-24T07:03:13.804Z,34.1
2016-11-24T07:04:13.871Z,34.1
2016-11-24T07:05:13.880Z,34.1
2016-11-24T07:06:13.918Z,34.1
2016-11-24T07:07:13.932Z,34.2
2016-11-24T07:08:13.997Z,34.2
2016-11-24T07:09:13.989Z,34.2
2016-11-24T07:10:14.879Z,34.2
2016-11-24T07:11:14.212Z,34.2
2016-11-24T07:12:10.661Z,34.2
2016-11-24T07:13:10.577Z,34.2
2016-11-24T07:14:14.384Z,34.2
2016-11-24T07:15:11.362Z,34.2
2016-11-24T07:16:10.858Z,34.2
2016-11-24T07:17:14.465Z,34.2
2016-11-24T07:18:10.850Z,34.2
2016-11-24T07:19:10.943Z,34.2
2016-11-24T07:20:14.620Z,34.1
2016-11-24T07:21:14.600Z,34.1
2016-11-24T07:22:11.007Z,34.2
2016-11-24T07:23:14.651Z,34.2
2016-11-24T07:24:14.809Z,34.3
2016-11-24T07:25:11.685Z,34.3
2016-11-24T07:26:14.963Z,34.4
2016-11-24T07:27:14.875Z,34.4
2016-11-24T07:28:15.010Z,34.5
2016-11-24T07:29:16.040Z,34.6
2016-11-24T07:30:11.490Z,34.6
2016-11-24T07:31:12.671Z,34.7
2016-11-24T07:32:12.817Z,34.7
2016-11-24T07:33:16.914Z,34.8
2016-11-24T07:34:15.343Z,34.8
2016-11-24T07:35:11.780Z,34.8
2016-11-24T07:36:11.935Z,34.8
2016-11-24T07:37:15.517Z,34.9
2016-11-24T07:38:16.271Z,34.9
2016-11-24T07:39:15.646Z,34.9
2016-11-24T07:40:12.724Z,34.9
2016-11-24T07:41:12.088Z,34.9
2016-11-24T07:42:12.128Z,34.9
2016-11-24T07:43:15.956Z,34.9
2016-11-24T07:44:15.963Z,34.9
2016-11-24T07:45:12.335Z,35
2016-11-24T07:46:12.349Z,35
2016-11-24T07:47:15.956Z,35
2016-11-24T07:48:12.365Z,35
2016-11-24T07:49:16.101Z,35.1
2016-11-24T07:50:12.469Z,35.1
2016-11-24T07:51:16.155Z,35
2016-11-24T07:52:12.694Z,34.6
2016-11-24T07:53:13.425Z,34.3
2016-11-24T07:54:16.525Z,34.2
2016-11-24T07:55:13.527Z,34.1
2016-11-24T07:56:12.954Z,34.1
2016-11-24T07:57:13.067Z,34.1
2016-11-24T07:58:17.397Z,34.1
2016-11-24T07:59:16.820Z,34.1
2016-11-24T08:00:18.182Z,34.1
2016-11-24T08:01:16.890Z,34.1
2016-11-24T08:02:13.246Z,34.1
2016-11-24T08:03:14.843Z,34.2
2016-11-24T08:04:17.118Z,34.1
2016-11-24T08:05:17.792Z,34.1
2016-11-24T08:06:17.994Z,34.2
2016-11-24T08:07:14.503Z,34.1
2016-11-24T08:08:19.781Z,34.1
2016-11-24T08:09:14.441Z,34.1
2016-11-24T08:10:13.961Z,34.3
2016-11-24T08:11:17.463Z,34.4
2016-11-24T08:12:17.670Z,34.4
2016-11-24T08:13:17.681Z,34.3
2016-11-24T08:14:17.733Z,34.3
2016-11-24T08:15:19.127Z,34.3
2016-11-24T08:16:18.446Z,34.2
2016-11-24T08:17:17.808Z,34.2
2016-11-24T08:18:17.941Z,34.1
2016-11-24T08:19:15.525Z,34.1
2016-11-24T08:20:14.863Z,34
2016-11-24T08:21:17.942Z,34
2016-11-24T08:22:18.515Z,34
2016-11-24T08:23:17.920Z,33.9
2016-11-24T08:24:19.105Z,33.9
2016-11-24T08:25:14.945Z,33.9
2016-11-24T08:26:15.141Z,33.9
2016-11-24T08:27:14.855Z,33.9
2016-11-24T08:28:19.257Z,33.9
2016-11-24T08:29:15.058Z,33.9
2016-11-24T08:30:14.568Z,33.8
2016-11-24T08:31:18.233Z,33.8
2016-11-24T08:32:15.447Z,33.8
2016-11-24T08:33:18.477Z,33.8
2016-11-24T08:34:15.625Z,33.7
2016-11-24T08:35:19.199Z,33.7
2016-11-24T08:36:18.558Z,33.7
2016-11-24T08:37:19.357Z,33.7
2016-11-24T08:38:15.071Z,33.7
2016-11-24T08:39:16.363Z,33.7
2016-11-24T08:40:18.836Z,33.7
2016-11-24T08:41:19.676Z,33.6
2016-11-24T08:42:16.633Z,33.6
2016-11-24T08:43:17.276Z,33.6
2016-11-24T08:44:20.445Z,33.5
2016-11-24T08:45:15.207Z,33.5
2016-11-24T08:46:19.045Z,33.6
2016-11-24T08:47:20.049Z,33.6
2016-11-24T08:48:19.204Z,33.6
2016-11-24T08:49:19.228Z,33.6
2016-11-24T08:50:16.263Z,33.6
2016-11-24T08:51:16.351Z,33.6
2016-11-24T08:52:17.546Z,33.6
2016-11-24T08:53:16.375Z,33.6
2016-11-24T08:54:20.791Z,33.6
2016-11-24T08:55:19.448Z,33.6
2016-11-24T08:56:20.224Z,33.6
2016-11-24T08:57:23.624Z,33.6
2016-11-24T08:58:18.149Z,33.6
2016-11-24T08:59:28.419Z,33.6
2016-11-24T09:00:15.997Z,33.6
2016-11-24T09:01:16.169Z,33.6
2016-11-24T09:02:16.942Z,33.7
2016-11-24T09:03:20.005Z,33.7
2016-11-24T09:04:23.221Z,33.7
2016-11-24T09:05:16.320Z,33.7
2016-11-24T09:06:18.090Z,33.7
2016-11-24T09:07:17.117Z,33.7
2016-11-24T09:08:22.795Z,33.7
2016-11-24T09:09:20.160Z,33.7
2016-11-24T09:10:21.611Z,33.7
2016-11-24T09:11:17.292Z,33.7
2016-11-24T09:12:21.099Z,33.7
2016-11-24T09:13:17.430Z,33.7
2016-11-24T09:14:21.085Z,33.7
2016-11-24T09:15:21.898Z,33.7
2016-11-24T09:16:21.836Z,33.7
2016-11-24T09:17:17.908Z,33.7
2016-11-24T09:18:21.274Z,33.8
2016-11-24T09:19:17.079Z,33.8
2016-11-24T09:20:22.508Z,33.8
2016-11-24T09:21:24.775Z,33.8
2016-11-24T09:22:17.769Z,33.8
2016-11-24T09:23:17.173Z,33.8
2016-11-24T09:24:20.862Z,33.9
2016-11-24T09:25:17.373Z,33.8
2016-11-24T09:26:18.075Z,33.8
2016-11-24T09:27:21.036Z,33.8
2016-11-24T09:28:17.399Z,33.8
2016-11-24T09:29:23.943Z,33.8
2016-11-24T09:30:21.186Z,33.7
2016-11-24T09:31:17.992Z,33.7
2016-11-24T09:32:18.413Z,33.7
2016-11-24T09:33:17.642Z,33.6
2016-11-24T09:34:18.920Z,33.6
2016-11-24T09:35:22.691Z,33.6
2016-11-24T09:36:17.877Z,33.6
2016-11-24T09:37:21.495Z,33.6
2016-11-24T09:38:17.995Z,33.7
2016-11-24T09:39:18.072Z,33.7
2016-11-24T09:40:23.566Z,33.7
2016-11-24T09:41:22.051Z,33.7
2016-11-24T09:42:18.268Z,33.7
2016-11-24T09:43:21.889Z,33.7
2016-11-24T09:44:21.957Z,33.7
2016-11-24T09:45:18.236Z,33.8
2016-11-24T09:46:23.149Z,33.8
2016-11-24T09:47:18.944Z,33.8
2016-11-24T09:48:22.600Z,33.8
2016-11-24T09:49:24.167Z,33.8
2016-11-24T09:50:22.085Z,33.8
2016-11-24T09:51:18.607Z,33.8
2016-11-24T09:52:24.780Z,33.8
2016-11-24T09:53:19.911Z,33.8
2016-11-24T09:54:22.390Z,33.8
2016-11-24T09:55:19.978Z,33.8
2016-11-24T09:56:18.776Z,33.8
2016-11-24T09:57:22.599Z,33.8
2016-11-24T09:58:22.665Z,33.8
2016-11-24T09:59:20.642Z,33.8
2016-11-24T10:00:24.135Z,33.8
2016-11-24T10:01:21.234Z,33.8
2016-11-24T10:02:20.418Z,33.8
2016-11-24T10:03:26.481Z,33.8
2016-11-24T10:04:24.792Z,33.8
2016-11-24T10:05:21.723Z,33.8
2016-11-24T10:06:24.407Z,33.8
2016-11-24T10:07:23.114Z,33.8
2016-11-24T10:08:19.909Z,33.8
2016-11-24T10:09:19.449Z,33.8
2016-11-24T10:10:23.249Z,33.8
2016-11-24T10:11:23.862Z,33.8
2016-11-24T10:12:23.903Z,33.8
2016-11-24T10:13:19.776Z,33.8
2016-11-24T10:14:26.457Z,33.8
2016-11-24T10:15:19.783Z,33.8
2016-11-24T10:16:21.781Z,33.8
2016-11-24T10:17:25.610Z,33.8
2016-11-24T10:18:24.037Z,33.7
2016-11-24T10:19:23.634Z,33.7
2016-11-24T10:20:19.892Z,33.7
2016-11-24T10:21:21.790Z,33.7
2016-11-24T10:22:21.309Z,33.6
2016-11-24T10:23:22.117Z,33.3
2016-11-24T10:24:27.100Z,33.1
2016-11-24T10:25:25.106Z,32.9
2016-11-24T10:26:26.376Z,32.8
2016-11-24T10:27:20.293Z,32.7
2016-11-24T10:28:25.338Z,32.7
2016-11-24T10:29:24.546Z,32.8
2016-11-24T10:30:23.993Z,32.7
2016-11-24T10:31:21.914Z,32.7
2016-11-24T10:32:21.794Z,32.6
2016-11-24T10:33:21.050Z,32.5
2016-11-24T10:34:23.685Z,32.3
2016-11-24T10:35:26.874Z,32.3
2016-11-24T10:36:25.039Z,32.2
2016-11-24T10:37:26.562Z,32.2
2016-11-24T10:38:22.571Z,32.1
2016-11-24T10:39:21.308Z,32
2016-11-24T10:40:21.604Z,32
2016-11-24T10:41:25.065Z,32
2016-11-24T10:42:24.499Z,32.1
2016-11-24T10:43:21.581Z,32
2016-11-24T10:44:22.258Z,32.1
2016-11-24T10:45:20.932Z,32
2016-11-24T10:46:21.155Z,31.9
2016-11-24T10:47:25.382Z,31.9
2016-11-24T10:48:25.464Z,31.9
2016-11-24T10:49:28.041Z,31.9
2016-11-24T10:50:26.189Z,31.9
2016-11-24T10:51:26.262Z,31.8
2016-11-24T10:52:27.271Z,31.8
2016-11-24T10:53:21.498Z,31.7
2016-11-24T10:54:24.266Z,31.7
2016-11-24T10:55:22.196Z,31.7
2016-11-24T10:56:22.378Z,31.8
2016-11-24T10:57:21.814Z,31.8
2016-11-24T10:58:23.601Z,31.7
2016-11-24T10:59:31.957Z,31.7
2016-11-24T11:00:28.111Z,31.7
2016-11-24T11:01:26.306Z,31.8
2016-11-24T11:02:26.941Z,31.8
2016-11-24T11:03:23.543Z,31.9
2016-11-24T11:04:22.038Z,31.9
2016-11-24T11:05:28.114Z,31.9
2016-11-24T11:06:26.867Z,31.9
2016-11-24T11:07:26.916Z,31.9
2016-11-24T11:08:27.749Z,32
2016-11-24T11:09:25.065Z,32
2016-11-24T11:10:27.766Z,32
2016-11-24T11:11:26.088Z,32
2016-11-24T11:12:27.756Z,32
2016-11-24T11:13:28.099Z,31.9
2016-11-24T11:14:28.168Z,31.9
2016-11-24T11:15:25.009Z,31.9
2016-11-24T11:16:27.555Z,32
2016-11-24T11:17:26.344Z,32
2016-11-24T11:18:23.373Z,32
2016-11-24T11:19:26.491Z,32
2016-11-24T11:20:27.594Z,32
2016-11-24T11:21:27.085Z,31.9
2016-11-24T11:22:27.694Z,32
2016-11-24T11:23:27.910Z,32
2016-11-24T11:24:23.722Z,32
2016-11-24T11:25:25.282Z,32
2016-11-24T11:26:22.947Z,32
2016-11-24T11:27:23.064Z,32.1
2016-11-24T11:28:25.436Z,32.2
2016-11-24T11:29:23.970Z,32.3
2016-11-24T11:30:28.293Z,32.2
2016-11-24T11:31:25.529Z,32.1
2016-11-24T11:32:29.100Z,32
2016-11-24T11:33:24.221Z,32
2016-11-24T11:34:29.284Z,31.9
2016-11-24T11:35:28.533Z,31.8
2016-11-24T11:36:28.672Z,31.7
2016-11-24T11:37:28.681Z,31.6
2016-11-24T11:38:26.269Z,31.5
2016-11-24T11:39:29.984Z,31.4
2016-11-24T11:40:24.517Z,31.3
2016-11-24T11:41:27.571Z,31.2
2016-11-24T11:42:27.572Z,31.1
2016-11-24T11:43:24.692Z,31
2016-11-24T11:44:24.643Z,30.9
2016-11-24T11:45:26.866Z,30.8
2016-11-24T11:46:28.485Z,30.8
2016-11-24T11:47:27.750Z,30.7
2016-11-24T11:48:25.506Z,30.7
2016-11-24T11:49:30.202Z,30.7
2016-11-24T11:50:26.267Z,30.6
2016-11-24T11:51:28.683Z,30.6
2016-11-24T11:52:24.387Z,30.6
2016-11-24T11:53:24.504Z,30.5
2016-11-24T11:54:26.448Z,30.5
2016-11-24T11:55:29.077Z,30.5
2016-11-24T11:56:24.888Z,30.4
2016-11-24T11:57:31.271Z,30.5
2016-11-24T11:58:30.048Z,30.4
2016-11-24T11:59:29.463Z,30.4
2016-11-24T12:00:30.035Z,30.4
2016-11-24T12:01:31.167Z,30.3
2016-11-24T12:02:29.904Z,30.3
2016-11-24T12:03:31.978Z,30.3
2016-11-24T12:04:29.334Z,30.3
2016-11-24T12:05:28.870Z,30.3
2016-11-24T12:06:25.658Z,30.3
2016-11-24T12:07:30.617Z,30.4
2016-11-24T12:08:25.059Z,30.5
2016-11-24T12:09:31.057Z,30.6
2016-11-24T12:10:26.365Z,30.7
2016-11-24T12:11:26.513Z,30.8
2016-11-24T12:12:28.764Z,30.9
2016-11-24T12:13:27.746Z,31
2016-11-24T12:14:31.290Z,31.1
2016-11-24T12:15:25.330Z,31.2
2016-11-24T12:16:29.666Z,31.3
2016-11-24T12:17:28.914Z,31.5
2016-11-24T12:18:27.438Z,31.6
2016-11-24T12:19:26.057Z,31.7
2016-11-24T12:20:25.384Z,31.7
2016-11-24T12:21:26.684Z,31.8
2016-11-24T12:22:26.258Z,31.8
2016-11-24T12:23:26.753Z,31.9
2016-11-24T12:24:27.583Z,32
2016-11-24T12:25:30.194Z,32.1
2016-11-24T12:26:26.377Z,32.2
2016-11-24T12:27:30.839Z,32.3
2016-11-24T12:28:26.648Z,32.3
2016-11-24T12:29:27.269Z,32.2
2016-11-24T12:30:26.057Z,32.1
2016-11-24T12:31:26.713Z,32.1
2016-11-24T12:32:29.873Z,32.1
2016-11-24T12:33:30.577Z,32.2
2016-11-24T12:34:29.897Z,32.3
2016-11-24T12:35:28.248Z,32.3
2016-11-24T12:36:28.136Z,32.4
2016-11-24T12:37:27.055Z,32.3
2016-11-24T12:38:30.107Z,32.2
2016-11-24T12:39:30.168Z,32
2016-11-24T12:40:26.687Z,32
2016-11-24T12:41:28.763Z,31.8
2016-11-24T12:42:30.475Z,31.7
2016-11-24T12:43:30.540Z,31.7
2016-11-24T12:44:31.098Z,31.5
2016-11-24T12:45:26.901Z,31.5
2016-11-24T12:46:31.399Z,31.4
2016-11-24T12:47:31.322Z,31.2
2016-11-24T12:48:31.366Z,31.1
2016-11-24T12:49:32.034Z,31.2
2016-11-24T12:50:27.114Z,31.3
2016-11-24T12:51:31.293Z,31.5
2016-11-24T12:52:31.513Z,31.5
2016-11-24T12:53:27.892Z,31.6
2016-11-24T12:54:33.832Z,31.7
2016-11-24T12:55:32.413Z,31.7
2016-11-24T12:56:27.858Z,31.7
2016-11-24T12:57:32.028Z,31.8
2016-11-24T12:58:28.040Z,31.6
2016-11-24T12:59:27.601Z,31.4
2016-11-24T13:00:31.303Z,31.4
2016-11-24T13:01:28.419Z,31.5
2016-11-24T13:02:29.627Z,31.5
2016-11-24T13:03:35.344Z,31.5
2016-11-24T13:04:28.420Z,31.5
2016-11-24T13:05:29.322Z,31.4
2016-11-24T13:06:28.626Z,31.5
2016-11-24T13:07:28.451Z,31.5
2016-11-24T13:08:28.521Z,31.4
2016-11-24T13:09:27.883Z,31.4
2016-11-24T13:10:36.352Z,31.4
2016-11-24T13:11:35.652Z,31.5
2016-11-24T13:12:31.744Z,31.5
2016-11-24T13:13:28.213Z,31.6
2016-11-24T13:14:32.609Z,31.6
2016-11-24T13:15:34.642Z,31.5
2016-11-24T13:16:36.803Z,31.5
2016-11-24T13:17:38.074Z,31.5
2016-11-24T13:18:33.571Z,31.5
2016-11-24T13:19:32.613Z,31.5
2016-11-24T13:20:32.624Z,31.4
2016-11-24T13:21:34.528Z,31.5
2016-11-24T13:22:30.536Z,31.5